Time;durP1;ratioP1;P1;durP2;ratioP2;P2;SDS_P1;SDS_P2;PMS_P1;PMS_P2;Temp;Humidity;BMP_temperature;BMP_pressure;BME280_temperature;BME280_humidity;BME280_pressure;Samples;Min_cycle;Max_cycle;Signal;HPM_P1;HPM_P2
2022/11/13 00:01:48;;;;;;;18.57;11.57;;;7.20;99.90;;;;;;5068484;28;20047;-55
2022/11/13 00:04:13;;;;;;;14.07;11.37;;;7.30;99.90;;;;;;5070941;28;20025;-55
2022/11/13 00:06:39;;;;;;;15.10;11.83;;;7.30;99.90;;;;;;5065713;28;20056;-56
2022/11/13 00:09:04;;;;;;;15.70;11.30;;;7.30;99.90;;;;;;5058671;28;20521;-55
2022/11/13 00:11:31;;;;;;;18.20;12.00;;;7.40;99.90;;;;;;5073449;28;20032;-56
2022/11/13 00:13:56;;;;;;;15.70;12.25;;;7.40;99.90;;;;;;5060496;28;20044;-56
2022/11/13 00:16:22;;;;;;;12.67;11.20;;;7.40;99.90;;;;;;5063075;28;20036;-56
2022/11/13 00:18:47;;;;;;;11.33;9.97;;;7.40;99.90;;;;;;5072604;28;20041;-55
2022/11/13 00:21:16;;;;;;;14.20;8.30;;;7.50;99.90;;;;;;5064889;28;20466;-56
2022/11/13 00:23:41;;;;;;;8.35;7.55;;;7.40;99.90;;;;;;5066251;28;20103;-55
2022/11/13 00:26:19;;;;;;;8.35;7.53;;;7.30;99.90;;;;;;5064380;28;20118;-54
2022/11/13 00:28:45;;;;;;;8.73;7.82;;;7.30;99.90;;;;;;5065868;28;20047;-55
2022/11/13 00:31:13;;;;;;;9.53;8.60;;;7.20;99.90;;;;;;5066715;28;20041;-56
2022/11/13 00:33:39;;;;;;;12.20;9.55;;;7.20;99.90;;;;;;5067230;28;20297;-56
2022/11/13 00:36:13;;;;;;;11.20;9.25;;;7.20;99.90;;;;;;5057831;28;20526;-56
2022/11/13 00:38:39;;;;;;;13.50;10.43;;;7.20;99.90;;;;;;5057769;28;20052;-56
2022/11/13 00:41:05;;;;;;;17.70;12.20;;;7.20;99.90;;;;;;5067512;28;20525;-56
2022/11/13 00:43:30;;;;;;;18.13;12.20;;;7.20;99.90;;;;;;5063045;28;20398;-54
2022/11/13 00:45:56;;;;;;;20.53;13.70;;;7.30;99.90;;;;;;5057542;28;20181;-54
2022/11/13 00:48:21;;;;;;;18.48;13.10;;;7.30;99.90;;;;;;5073467;28;20036;-55
2022/11/13 00:50:48;;;;;;;16.73;13.03;;;7.30;99.90;;;;;;5079263;28;20040;-55
2022/11/13 00:53:13;;;;;;;16.90;12.60;;;7.30;99.90;;;;;;5062197;28;20043;-56
2022/11/13 00:55:40;;;;;;;19.20;12.25;;;7.30;99.90;;;;;;5068537;28;20405;-55
2022/11/13 00:58:06;;;;;;;20.05;12.55;;;7.30;99.90;;;;;;5069486;28;20048;-55
2022/11/13 01:00:32;;;;;;;15.20;12.40;;;7.30;99.90;;;;;;5068820;28;20044;-54
2022/11/13 01:02:58;;;;;;;17.60;12.75;;;7.30;99.90;;;;;;5068616;28;20045;-55
2022/11/13 01:05:25;;;;;;;14.02;11.73;;;7.30;99.90;;;;;;5069511;28;20063;-54
2022/11/13 01:07:50;;;;;;;12.52;10.63;;;7.30;99.90;;;;;;5066087;28;20055;-55
2022/11/13 01:10:16;;;;;;;10.27;9.30;;;7.20;99.90;;;;;;5063776;28;20116;-55
2022/11/13 01:12:41;;;;;;;16.13;9.23;;;7.10;99.90;;;;;;5058281;28;20132;-55
2022/11/13 01:15:07;;;;;;;12.40;8.60;;;7.00;99.90;;;;;;5067391;28;20040;-55
2022/11/13 01:17:33;;;;;;;9.10;8.15;;;7.00;99.90;;;;;;5068108;28;20080;-55
2022/11/13 01:19:59;;;;;;;9.48;8.40;;;7.00;99.90;;;;;;5068860;28;20032;-56
2022/11/13 01:22:24;;;;;;;11.63;10.37;;;6.90;99.90;;;;;;5069485;28;20433;-56
2022/11/13 01:24:50;;;;;;;10.10;9.10;;;6.90;99.90;;;;;;5067524;28;20086;-54
2022/11/13 01:27:15;;;;;;;15.73;11.03;;;6.80;99.90;;;;;;5056180;28;20095;-55
2022/11/13 01:29:41;;;;;;;12.73;10.67;;;6.80;99.90;;;;;;5048568;28;20041;-54
2022/11/13 01:32:06;;;;;;;12.97;11.27;;;6.80;99.90;;;;;;5067877;28;20080;-54
2022/11/13 01:34:32;;;;;;;11.77;10.50;;;6.80;99.90;;;;;;5068035;28;20282;-56
2022/11/13 01:36:58;;;;;;;17.92;11.05;;;6.80;99.90;;;;;;5057587;28;20041;-53
2022/11/13 01:39:24;;;;;;;15.93;12.23;;;6.80;99.90;;;;;;5049217;28;20048;-55
2022/11/13 01:41:49;;;;;;;13.07;10.97;;;6.80;99.90;;;;;;5049891;28;20506;-54
2022/11/13 01:44:17;;;;;;;12.30;10.37;;;6.80;99.90;;;;;;5062958;28;20051;-52
2022/11/13 01:46:44;;;;;;;13.25;11.23;;;6.80;99.90;;;;;;5069981;28;20037;-54
2022/11/13 01:49:09;;;;;;;14.43;12.45;;;6.80;99.90;;;;;;5080148;28;20040;-56
2022/11/13 01:51:39;;;;;;;13.40;11.57;;;6.80;99.90;;;;;;5065205;28;20052;-55
2022/11/13 01:54:10;;;;;;;14.00;12.35;;;6.70;99.90;;;;;;5064096;28;20139;-56
2022/11/13 01:56:35;;;;;;;15.27;12.05;;;6.70;99.90;;;;;;5071349;28;20036;-55
2022/11/13 01:59:10;;;;;;;17.00;13.98;;;6.70;99.90;;;;;;5072443;28;20044;-54
2022/11/13 02:01:36;;;;;;;16.50;13.23;;;6.70;99.90;;;;;;5058938;28;20497;-54
2022/11/13 02:04:01;;;;;;;15.83;12.23;;;6.70;99.90;;;;;;5051791;28;20050;-56
2022/11/13 02:06:33;;;;;;;14.65;12.93;;;6.70;99.90;;;;;;5052355;28;20049;-53
2022/11/13 02:08:58;;;;;;;14.90;12.00;;;6.60;99.90;;;;;;5052125;28;20048;-53
2022/11/13 02:11:24;;;;;;;17.17;12.37;;;6.60;99.90;;;;;;5066832;28;20040;-55
2022/11/13 02:13:50;;;;;;;13.70;11.75;;;6.50;99.90;;;;;;5056126;28;20559;-55
2022/11/13 02:16:17;;;;;;;19.02;13.10;;;6.50;99.90;;;;;;5052339;28;20067;-56
2022/11/13 02:18:43;;;;;;;14.30;12.55;;;6.40;99.90;;;;;;5052602;28;20055;-55
2022/11/13 02:21:16;;;;;;;16.15;13.18;;;6.40;99.90;;;;;;5060652;28;20044;-56
2022/11/13 02:24:12;;;;;;;17.67;13.77;;;6.30;99.90;;;;;;5069194;28;20113;-54
2022/11/13 02:26:38;;;;;;;17.90;14.70;;;6.30;99.90;;;;;;5072097;28;20040;-52
2022/11/13 02:29:05;;;;;;;18.30;15.23;;;6.30;99.90;;;;;;5072105;28;20405;-53
2022/11/13 02:31:30;;;;;;;17.85;14.80;;;6.30;99.90;;;;;;5067578;28;20041;-56
2022/11/13 02:33:56;;;;;;;17.30;15.03;;;6.30;99.90;;;;;;5068190;28;20028;-55
2022/11/13 02:36:24;;;;;;;18.10;14.90;;;6.30;99.90;;;;;;5080858;28;20037;-55
2022/11/13 02:38:51;;;;;;;20.08;14.80;;;6.30;99.90;;;;;;5053560;28;20456;-56
2022/11/13 02:41:17;;;;;;;19.63;15.25;;;6.30;99.90;;;;;;5071057;28;20044;-55
2022/11/13 02:43:42;;;;;;;19.00;14.30;;;6.30;99.90;;;;;;5058235;28;20047;-55
2022/11/13 02:46:08;;;;;;;25.43;15.93;;;6.30;99.90;;;;;;5052736;28;20124;-56
2022/11/13 02:48:33;;;;;;;18.27;14.07;;;6.30;99.90;;;;;;5051604;28;20055;-51
2022/11/13 02:50:59;;;;;;;18.60;13.87;;;6.30;99.90;;;;;;5051434;28;20068;-54
2022/11/13 02:53:24;;;;;;;16.15;14.15;;;6.30;99.90;;;;;;5056137;28;20188;-55
2022/11/13 02:55:50;;;;;;;14.03;12.27;;;6.30;99.90;;;;;;5052446;28;20037;-54
2022/11/13 02:58:16;;;;;;;16.10;12.17;;;6.20;99.90;;;;;;5053413;28;20101;-56
2022/11/13 03:00:41;;;;;;;18.37;13.53;;;6.20;99.90;;;;;;5061819;28;20041;-52
2022/11/13 03:03:07;;;;;;;15.90;13.03;;;6.20;99.90;;;;;;5061336;28;20458;-53
2022/11/13 03:05:32;;;;;;;14.30;12.33;;;6.10;99.90;;;;;;5069149;28;20032;-53
2022/11/13 03:07:58;;;;;;;17.93;14.90;;;6.00;99.90;;;;;;5071013;28;20045;-52
2022/11/13 03:10:23;;;;;;;18.23;14.00;;;5.90;99.90;;;;;;5071977;28;20032;-56
2022/11/13 03:12:49;;;;;;;20.07;14.50;;;5.90;99.90;;;;;;5082811;28;20174;-55
2022/11/13 03:15:14;;;;;;;16.40;13.97;;;5.80;99.90;;;;;;5070029;28;20034;-52
2022/11/13 03:17:40;;;;;;;19.23;13.77;;;5.80;99.90;;;;;;5053561;28;20029;-54
2022/11/13 03:20:06;;;;;;;23.03;14.07;;;5.80;99.90;;;;;;5054440;28;20051;-51
2022/11/13 03:22:32;;;;;;;16.02;12.88;;;5.70;99.90;;;;;;5051115;28;20131;-52
2022/11/13 03:24:57;;;;;;;21.27;15.63;;;5.70;99.90;;;;;;5049500;28;20120;-53
2022/11/13 03:27:23;;;;;;;17.20;15.40;;;5.70;99.90;;;;;;5051830;28;20298;-54
2022/11/13 03:29:48;;;;;;;19.53;15.53;;;5.70;99.90;;;;;;5034199;28;20051;-54
2022/11/13 03:32:14;;;;;;;21.93;17.00;;;5.70;99.90;;;;;;5068501;28;20040;-55
2022/11/13 03:34:39;;;;;;;26.17;15.85;;;5.70;99.90;;;;;;5068146;28;20032;-52
2022/11/13 03:37:05;;;;;;;23.00;16.60;;;5.70;99.90;;;;;;5068940;28;20049;-55
2022/11/13 03:39:30;;;;;;;18.57;16.57;;;5.70;99.90;;;;;;5063994;28;20045;-54
2022/11/13 03:41:56;;;;;;;21.53;17.50;;;5.70;99.90;;;;;;5055815;28;20526;-53
2022/11/13 03:44:21;;;;;;;21.33;16.90;;;5.70;99.90;;;;;;5069321;28;20050;-54
2022/11/13 03:46:47;;;;;;;24.70;17.47;;;5.70;99.90;;;;;;5070575;28;20055;-53
2022/11/13 03:49:12;;;;;;;20.30;15.83;;;5.80;99.90;;;;;;5068095;28;20044;-53
2022/11/13 03:51:38;;;;;;;24.13;18.67;;;5.80;99.90;;;;;;5070581;28;20123;-53
2022/11/13 03:54:03;;;;;;;24.97;17.43;;;5.80;99.90;;;;;;5062599;28;20039;-55
2022/11/13 03:56:29;;;;;;;18.93;16.47;;;5.90;99.90;;;;;;5050367;28;20033;-53
2022/11/13 03:58:55;;;;;;;24.77;17.07;;;5.90;99.90;;;;;;5051496;28;20044;-52
2022/11/13 04:01:20;;;;;;;26.00;19.03;;;5.90;99.90;;;;;;5050340;28;20398;-52
2022/11/13 04:03:46;;;;;;;20.67;17.70;;;5.90;99.90;;;;;;5049052;28;20037;-54
2022/11/13 04:06:13;;;;;;;26.37;17.73;;;5.80;99.90;;;;;;5068079;28;20317;-55
2022/11/13 04:08:39;;;;;;;20.83;16.63;;;5.80;99.90;;;;;;5065827;28;20109;-55
2022/11/13 04:11:09;;;;;;;25.40;16.67;;;5.70;99.90;;;;;;5070360;28;20115;-53
2022/11/13 04:13:35;;;;;;;18.70;15.55;;;5.70;99.90;;;;;;5069239;28;20047;-53
2022/11/13 04:16:00;;;;;;;19.67;16.45;;;5.60;99.90;;;;;;5067654;28;20037;-53
2022/11/13 04:18:26;;;;;;;19.77;17.67;;;5.60;99.90;;;;;;5069904;28;20048;-56
2022/11/13 04:20:57;;;;;;;21.27;17.57;;;5.60;99.90;;;;;;5068383;28;20043;-55
2022/11/13 04:23:23;;;;;;;21.48;17.20;;;5.60;99.90;;;;;;5068731;28;20037;-56
2022/11/13 04:25:48;;;;;;;26.47;19.37;;;5.50;99.90;;;;;;5069652;28;20032;-55
2022/11/13 04:28:14;;;;;;;19.90;17.27;;;5.50;99.90;;;;;;5069318;28;20119;-55
2022/11/13 04:30:39;;;;;;;22.30;17.53;;;5.60;99.90;;;;;;5060606;28;20041;-55
2022/11/13 04:33:05;;;;;;;22.93;18.57;;;5.60;99.90;;;;;;5048332;28;20045;-53
2022/11/13 04:35:31;;;;;;;26.52;18.08;;;5.50;99.90;;;;;;5051102;28;20509;-54
2022/11/13 04:37:56;;;;;;;23.40;18.70;;;5.50;99.90;;;;;;5069157;28;20028;-53
2022/11/13 04:40:22;;;;;;;24.93;19.20;;;5.50;99.90;;;;;;5057711;28;20122;-55
2022/11/13 04:42:47;;;;;;;22.33;18.47;;;5.50;99.90;;;;;;5049148;28;20509;-54
2022/11/13 04:45:15;;;;;;;24.30;19.07;;;5.50;99.90;;;;;;5048964;28;20032;-55
2022/11/13 04:47:40;;;;;;;20.95;18.00;;;5.50;99.90;;;;;;5049478;28;20040;-55
2022/11/13 04:50:06;;;;;;;18.27;14.43;;;5.50;99.90;;;;;;5049577;28;20040;-55
2022/11/13 04:52:31;;;;;;;20.75;15.75;;;5.40;99.90;;;;;;5051010;28;20129;-56
2022/11/13 04:54:57;;;;;;;19.77;16.40;;;5.30;99.90;;;;;;5047853;28;20398;-56
2022/11/13 04:57:23;;;;;;;24.20;18.03;;;5.30;99.90;;;;;;5049792;28;20409;-55
2022/11/13 04:59:48;;;;;;;23.30;18.30;;;5.30;99.90;;;;;;5062248;28;20473;-55
2022/11/13 05:02:14;;;;;;;26.50;18.03;;;5.30;99.90;;;;;;5067299;28;20472;-55
2022/11/13 05:04:39;;;;;;;19.97;16.63;;;5.40;99.90;;;;;;5055531;28;20041;-52
2022/11/13 05:07:05;;;;;;;19.63;16.63;;;5.40;99.90;;;;;;5058752;28;20040;-56
2022/11/13 05:09:30;;;;;;;22.20;17.87;;;5.40;99.90;;;;;;5055933;28;20055;-53
2022/11/13 05:11:56;;;;;;;17.53;15.63;;;5.40;99.90;;;;;;5068614;28;20086;-55
2022/11/13 05:14:22;;;;;;;24.30;18.27;;;5.40;99.90;;;;;;5067082;28;20082;-52
2022/11/13 05:16:49;;;;;;;18.33;16.15;;;5.40;99.90;;;;;;5068224;28;20029;-53
2022/11/13 05:19:15;;;;;;;19.73;15.50;;;5.40;99.90;;;;;;5077596;28;20102;-54
2022/11/13 05:21:40;;;;;;;20.80;16.33;;;5.40;99.90;;;;;;5069652;28;20405;-52
2022/11/13 05:24:08;;;;;;;23.13;16.13;;;5.40;99.90;;;;;;5076669;28;20044;-55
2022/11/13 05:26:36;;;;;;;26.60;17.20;;;5.40;99.90;;;;;;5069914;28;20028;-53
2022/11/13 05:29:02;;;;;;;22.23;17.38;;;5.40;99.90;;;;;;5075356;28;20036;-54
2022/11/13 05:31:28;;;;;;;22.37;16.77;;;5.50;99.90;;;;;;5067940;28;20090;-55
2022/11/13 05:33:53;;;;;;;19.17;16.10;;;5.50;99.90;;;;;;5054739;28;20030;-52
2022/11/13 05:36:20;;;;;;;14.17;12.57;;;5.50;99.90;;;;;;5053978;28;20041;-54
2022/11/13 05:38:46;;;;;;;14.40;11.57;;;5.50;99.90;;;;;;5072850;28;20091;-52
2022/11/13 05:41:16;;;;;;;13.07;11.70;;;5.40;99.90;;;;;;5060203;28;20087;-53
2022/11/13 05:43:42;;;;;;;15.55;11.70;;;5.30;99.90;;;;;;5054945;28;20040;-52
2022/11/13 05:46:12;;;;;;;15.00;13.03;;;5.20;99.90;;;;;;5053376;28;20110;-52
2022/11/13 05:48:38;;;;;;;13.48;12.02;;;5.20;99.90;;;;;;5053088;28;20295;-51
2022/11/13 05:51:12;;;;;;;14.52;12.88;;;5.20;99.90;;;;;;5053182;28;20067;-52
2022/11/13 05:53:39;;;;;;;16.50;13.45;;;5.10;99.90;;;;;;5055509;28;20454;-55
2022/11/13 05:56:08;;;;;;;15.82;13.18;;;5.10;99.90;;;;;;5070304;28;20051;-51
2022/11/13 05:58:34;;;;;;;20.67;15.45;;;5.10;99.90;;;;;;5070047;28;20048;-55
2022/11/13 06:01:10;;;;;;;17.50;14.53;;;5.10;99.90;;;;;;5052979;28;20115;-55
2022/11/13 06:03:37;;;;;;;16.55;13.90;;;5.10;99.90;;;;;;5055078;28;20115;-54
2022/11/13 06:06:04;;;;;;;15.50;13.60;;;5.20;99.90;;;;;;5070140;28;20090;-52
2022/11/13 06:08:30;;;;;;;17.27;15.18;;;5.20;99.90;;;;;;5060514;28;20099;-53
2022/11/13 06:11:00;;;;;;;17.10;13.52;;;5.20;99.90;;;;;;5050762;28;20497;-54
2022/11/13 06:13:26;;;;;;;14.75;12.75;;;5.20;99.90;;;;;;5050226;28;20426;-53
2022/11/13 06:15:52;;;;;;;14.75;12.45;;;5.20;99.90;;;;;;5052303;28;20037;-54
2022/11/13 06:18:22;;;;;;;15.18;13.18;;;5.20;99.90;;;;;;5052173;28;20049;-55
2022/11/13 06:20:48;;;;;;;15.13;13.30;;;5.10;99.90;;;;;;5052210;28;20052;-56
2022/11/13 06:23:14;;;;;;;17.13;14.23;;;5.10;99.90;;;;;;5051299;28;20037;-55
2022/11/13 06:25:40;;;;;;;20.33;14.35;;;5.10;99.90;;;;;;5051690;28;20106;-55
2022/11/13 06:28:05;;;;;;;17.20;14.47;;;5.10;99.90;;;;;;5053262;28;20045;-53
2022/11/13 06:30:31;;;;;;;21.17;15.47;;;5.10;99.90;;;;;;5058662;28;20412;-53
2022/11/13 06:32:56;;;;;;;19.87;15.90;;;5.20;99.90;;;;;;5089066;28;20048;-55
2022/11/13 06:35:22;;;;;;;19.47;14.27;;;5.20;99.90;;;;;;5059407;28;20592;-53
2022/11/13 06:37:47;;;;;;;17.90;13.73;;;5.20;99.90;;;;;;5056619;28;20399;-55
2022/11/13 06:40:13;;;;;;;20.17;13.70;;;5.20;99.90;;;;;;5063268;28;20329;-53
2022/11/13 06:42:38;;;;;;;16.17;14.32;;;5.20;99.90;;;;;;5071934;28;20517;-56
2022/11/13 06:45:04;;;;;;;20.00;13.83;;;5.10;99.90;;;;;;5069540;28;20036;-54
2022/11/13 06:47:30;;;;;;;17.00;13.68;;;5.10;99.90;;;;;;5069797;28;20037;-55
2022/11/13 06:49:55;;;;;;;15.53;11.73;;;5.00;99.90;;;;;;5071174;28;20095;-55
2022/11/13 06:52:21;;;;;;;13.27;10.57;;;4.90;99.90;;;;;;5071525;28;20036;-54
2022/11/13 06:54:47;;;;;;;12.65;11.00;;;4.80;99.90;;;;;;5069664;28;20119;-55
2022/11/13 06:57:12;;;;;;;14.03;10.70;;;4.70;99.90;;;;;;5071635;28;20071;-55
2022/11/13 06:59:38;;;;;;;13.80;10.23;;;4.70;99.90;;;;;;5067646;28;20474;-55
2022/11/13 07:02:04;;;;;;;12.63;9.98;;;4.70;99.90;;;;;;5059304;28;20414;-55
2022/11/13 07:04:30;;;;;;;12.13;10.82;;;4.70;99.90;;;;;;5077390;28;20056;-55
2022/11/13 07:06:55;;;;;;;12.63;11.27;;;4.70;99.90;;;;;;5078898;28;20118;-54
2022/11/13 07:09:21;;;;;;;15.37;12.30;;;4.70;99.90;;;;;;5079288;28;20385;-55
2022/11/13 07:11:46;;;;;;;12.67;11.37;;;4.70;99.90;;;;;;5073172;28;20462;-52
2022/11/13 07:14:12;;;;;;;14.33;11.80;;;4.80;99.90;;;;;;5073296;28;20106;-54
2022/11/13 07:16:37;;;;;;;14.10;12.47;;;4.80;99.90;;;;;;5080200;28;20037;-55
2022/11/13 07:19:04;;;;;;;17.17;11.47;;;4.90;99.90;;;;;;5068857;28;20047;-55
2022/11/13 07:21:29;;;;;;;57.35;12.02;;;5.10;99.90;;;;;;5073982;28;20412;-55
2022/11/13 07:23:55;;;;;;;15.15;12.35;;;5.40;99.90;;;;;;5072180;28;20413;-53
2022/11/13 07:26:21;;;;;;;12.70;10.50;;;5.60;99.90;;;;;;5052411;28;20045;-55
2022/11/13 07:28:47;;;;;;;19.63;12.50;;;5.80;99.90;;;;;;5063349;28;20036;-54
2022/11/13 07:31:14;;;;;;;17.20;11.05;;;6.00;99.90;;;;;;5052172;28;20086;-54
2022/11/13 07:33:40;;;;;;;13.50;10.40;;;6.20;99.90;;;;;;5075117;28;20112;-55
2022/11/13 07:36:07;;;;;;;15.63;11.00;;;6.50;99.90;;;;;;5069524;28;20035;-56
2022/11/13 07:38:32;;;;;;;13.75;10.85;;;6.90;99.90;;;;;;5073731;28;20048;-55
2022/11/13 07:40:58;;;;;;;14.90;9.67;;;7.30;99.90;;;;;;5077893;28;20032;-54
2022/11/13 07:43:24;;;;;;;9.77;8.77;;;7.70;99.90;;;;;;5063476;28;20052;-54
2022/11/13 07:45:54;;;;;;;11.33;10.10;;;7.90;99.90;;;;;;5069230;28;20036;-55
2022/11/13 07:48:20;;;;;;;11.98;10.05;;;7.90;99.90;;;;;;5063116;28;20070;-55
2022/11/13 07:50:46;;;;;;;11.75;9.98;;;8.00;99.90;;;;;;5050266;28;20156;-53
2022/11/13 07:53:12;;;;;;;13.07;9.57;;;8.30;99.90;;;;;;5049339;28;20142;-52
2022/11/13 07:55:37;;;;;;;11.10;9.70;;;9.10;99.90;;;;;;5051293;28;20497;-56
2022/11/13 07:58:04;;;;;;;8.90;8.00;;;10.10;99.90;;;;;;5050365;28;20032;-57
2022/11/13 08:00:32;;;;;;;8.68;7.88;;;11.00;99.90;;;;;;5052024;28;20498;-55
2022/11/13 08:03:03;;;;;;;9.07;8.20;;;11.90;99.90;;;;;;5049284;28;20044;-56
2022/11/13 08:05:29;;;;;;;8.15;7.38;;;12.70;99.90;;;;;;5049980;28;20112;-53
2022/11/13 08:07:55;;;;;;;9.40;8.23;;;13.60;99.90;;;;;;5065492;28;20060;-55
2022/11/13 08:10:20;;;;;;;9.52;8.60;;;14.60;99.90;;;;;;5070280;28;20044;-57
2022/11/13 08:12:46;;;;;;;8.82;7.60;;;15.60;99.90;;;;;;5063888;28;20370;-57
2022/11/13 08:15:13;;;;;;;8.38;7.07;;;16.40;99.90;;;;;;5049048;28;20044;-54
2022/11/13 08:17:38;;;;;;;;;;;17.00;99.90;;;;;;5051900;28;20124;-55
2022/11/13 08:20:05;;;;;;;12.88;6.85;;;17.50;97.10;;;;;;5049258;28;20001;-54
2022/11/13 08:22:31;;;;;;;7.00;6.40;;;17.80;98.10;;;;;;5048913;28;20040;-54
2022/11/13 08:24:57;;;;;;;7.90;6.70;;;18.10;96.90;;;;;;5048502;28;20048;-56
2022/11/13 08:27:23;;;;;;;7.50;6.78;;;18.50;96.30;;;;;;5058287;28;20044;-57
2022/11/13 08:29:49;;;;;;;;;;;18.70;94.90;;;;;;5068675;28;20170;-57
2022/11/13 08:32:17;;;;;;;6.55;5.97;;;18.60;92.80;;;;;;5051041;28;19931;-56
2022/11/13 08:34:43;;;;;;;7.03;5.50;;;18.60;94.80;;;;;;5058428;28;20070;-55
2022/11/13 08:37:09;;;;;;;;;;;18.70;94.10;;;;;;5072862;28;20035;-53
2022/11/13 08:39:34;;;;;;;6.25;5.63;;;19.00;92.60;;;;;;5078738;28;19920;-54
2022/11/13 08:42:01;;;;;;;7.60;6.78;;;19.40;93.90;;;;;;5078466;28;20043;-56
2022/11/13 08:44:26;;;;;;;6.20;5.60;;;19.80;92.80;;;;;;5075961;28;20032;-56
2022/11/13 08:46:52;;;;;;;6.20;5.70;;;20.20;92.00;;;;;;5078551;28;20036;-57
2022/11/13 08:49:18;;;;;;;7.40;6.70;;;20.50;91.00;;;;;;5076557;28;20036;-56
2022/11/13 08:51:43;;;;;;;6.53;5.97;;;20.90;89.50;;;;;;5076842;28;20522;-56
2022/11/13 08:54:09;;;;;;;6.53;5.93;;;21.00;87.70;;;;;;5076520;28;20032;-56
2022/11/13 08:56:34;;;;;;;6.53;5.97;;;21.10;87.30;;;;;;5072279;28;20701;-55
2022/11/13 08:59:00;;;;;;;8.43;6.40;;;21.10;86.20;;;;;;5055595;28;20072;-54
2022/11/13 09:01:25;;;;;;;6.43;5.82;;;21.10;84.50;;;;;;5069337;28;20032;-57
2022/11/13 09:03:51;;;;;;;8.48;6.47;;;21.00;83.10;;;;;;5064622;28;20044;-57
2022/11/13 09:06:17;;;;;;;7.25;6.18;;;20.80;82.60;;;;;;5049436;28;20401;-55
2022/11/13 09:08:42;;;;;;;9.65;6.30;;;20.60;82.50;;;;;;5066997;28;20033;-54
2022/11/13 09:11:08;;;;;;;7.63;6.88;;;20.20;82.70;;;;;;5050814;28;20108;-54
2022/11/13 09:13:34;;;;;;;10.40;5.80;;;19.80;83.10;;;;;;5068101;28;20093;-56
2022/11/13 09:16:01;;;;;;;8.10;6.70;;;19.50;82.80;;;;;;5072041;28;20425;-54
2022/11/13 09:18:27;;;;;;;6.57;5.97;;;19.00;82.80;;;;;;5075470;28;20531;-51
2022/11/13 09:20:53;;;;;;;;;;;18.30;83.30;;;;;;5065210;28;20033;-54
2022/11/13 09:23:19;;;;;;;6.32;5.53;;;17.80;84.30;;;;;;5057344;28;19923;-51
2022/11/13 09:25:45;;;;;;;6.20;5.57;;;17.50;85.30;;;;;;5049367;28;20052;-51
2022/11/13 09:28:10;;;;;;;7.43;6.43;;;17.00;85.40;;;;;;5063110;28;20031;-52
2022/11/13 09:30:38;;;;;;;6.50;5.85;;;16.60;86.00;;;;;;5080219;28;20048;-52
2022/11/13 09:33:04;;;;;;;10.50;6.65;;;16.10;87.00;;;;;;5061022;28;20036;-51
2022/11/13 09:35:33;;;;;;;8.70;6.68;;;15.60;88.60;;;;;;5070139;28;20037;-52
2022/11/13 09:38:08;;;;;;;8.15;6.32;;;15.10;90.00;;;;;;5054146;28;20047;-54
2022/11/13 09:40:37;;;;;;;9.02;7.93;;;14.70;91.10;;;;;;5087957;28;20036;-52
2022/11/13 09:43:09;;;;;;;6.40;5.80;;;14.50;92.60;;;;;;5067014;28;20033;-51
2022/11/13 09:45:35;;;;;;;6.68;6.07;;;14.50;93.20;;;;;;5067102;28;20163;-55
2022/11/13 09:48:34;;;;;;;7.85;6.43;;;14.60;93.60;;;;;;5068661;28;20490;-55
2022/11/13 09:51:07;;;;;;;14.48;6.18;;;14.70;94.10;;;;;;5057633;28;20039;-54
2022/11/13 09:53:36;;;;;;;8.30;7.38;;;15.00;94.60;;;;;;5052602;28;20056;-51
2022/11/13 09:56:14;;;;;;;6.60;6.03;;;15.30;94.70;;;;;;5060356;28;20495;-53
2022/11/13 09:58:48;;;;;;;9.15;7.00;;;15.60;94.30;;;;;;5050710;28;20565;-52
2022/11/13 10:01:42;;;;;;;7.65;5.70;;;15.70;93.30;;;;;;5038295;28;20044;-53
2022/11/13 10:04:13;;;;;;;6.85;6.22;;;15.60;93.60;;;;;;5059430;28;20507;-50
2022/11/13 10:07:07;;;;;;;8.25;5.88;;;15.70;93.50;;;;;;5070301;28;20076;-52
2022/11/13 10:10:26;;;;;;;6.32;5.72;;;15.70;93.10;;;;;;5051276;28;20040;-50
2022/11/13 10:12:55;;;;;;;7.30;6.55;;;15.50;93.40;;;;;;5002244;28;20045;-51
2022/11/13 10:15:21;;;;;;;6.70;6.10;;;15.50;93.80;;;;;;5049078;28;20479;-50
2022/11/13 10:17:55;;;;;;;7.22;6.28;;;15.50;94.00;;;;;;5062256;28;20068;-51
2022/11/13 10:20:28;;;;;;;6.28;5.68;;;15.50;94.20;;;;;;5073655;28;20079;-51
2022/11/13 10:22:57;;;;;;;6.63;6.03;;;15.60;94.70;;;;;;5071047;28;20519;-51
2022/11/13 10:25:30;;;;;;;6.75;5.93;;;15.80;94.80;;;;;;5076604;28;20656;-54
2022/11/13 10:27:59;;;;;;;8.00;6.50;;;15.70;93.90;;;;;;5064916;28;20123;-52
2022/11/13 10:30:26;;;;;;;7.68;6.32;;;15.70;94.40;;;;;;5065987;28;20128;-54
2022/11/13 10:32:52;;;;;;;7.57;6.78;;;15.80;94.30;;;;;;5070787;28;20044;-53
2022/11/13 10:35:27;;;;;;;8.20;7.40;;;15.90;94.80;;;;;;5069430;28;20040;-53
2022/11/13 10:38:03;;;;;;;6.07;5.53;;;15.60;94.30;;;;;;5072254;28;20044;-51
2022/11/13 10:40:35;;;;;;;8.77;7.05;;;15.50;94.40;;;;;;5059115;28;20120;-51
2022/11/13 10:43:13;;;;;;;7.00;6.30;;;15.40;94.50;;;;;;5053530;28;20049;-51
2022/11/13 10:45:40;;;;;;;8.77;6.50;;;15.50;94.90;;;;;;5068278;28;20044;-52
2022/11/13 10:48:17;;;;;;;7.47;6.07;;;15.60;94.40;;;;;;5069511;28;20048;-51
2022/11/13 10:51:14;;;;;;;7.20;6.55;;;15.70;94.40;;;;;;5066180;28;20032;-52
2022/11/13 10:53:41;;;;;;;7.40;6.70;;;15.80;94.00;;;;;;5069621;28;20394;-52
2022/11/13 10:56:25;;;;;;;7.65;5.90;;;15.90;94.10;;;;;;5060455;28;20033;-53
2022/11/13 10:59:02;;;;;;;7.07;6.15;;;15.90;94.00;;;;;;5068089;28;20048;-51
2022/11/13 11:01:27;;;;;;;7.47;5.43;;;15.90;94.40;;;;;;5054519;28;20052;-52
2022/11/13 11:03:53;;;;;;;6.43;5.82;;;16.00;94.30;;;;;;5050640;28;20037;-51
2022/11/13 11:06:19;;;;;;;6.50;5.87;;;16.00;94.30;;;;;;5053485;28;20448;-54
2022/11/13 11:08:44;;;;;;;7.75;7.05;;;16.00;94.10;;;;;;5054262;28;20826;-52
2022/11/13 11:14:28;;;;;;;6.00;5.40;;;16.00;94.70;;;;;;5050116;28;20041;-52
2022/11/13 11:16:55;;;;;;;6.50;5.90;;;16.20;94.00;;;;;;5047608;28;20466;-56
2022/11/13 11:19:27;;;;;;;5.78;5.28;;;16.50;93.90;;;;;;5058993;28;20049;-52
2022/11/13 11:22:14;;;;;;;6.45;5.05;;;16.60;93.80;;;;;;5069694;28;20032;-54
2022/11/13 11:24:59;;;;;;;5.45;4.95;;;16.70;93.50;;;;;;5069108;28;20040;-54
2022/11/13 11:27:31;;;;;;;4.78;4.30;;;17.00;92.70;;;;;;5090209;28;20592;-52
2022/11/13 11:30:15;;;;;;;5.82;4.35;;;17.30;92.40;;;;;;5088167;28;20060;-54
2022/11/13 11:32:45;;;;;;;4.43;4.13;;;17.30;92.20;;;;;;5081005;28;20105;-55
2022/11/13 11:35:21;;;;;;;4.65;4.25;;;17.30;91.80;;;;;;5069134;28;20088;-54
2022/11/13 11:38:28;;;;;;;5.18;4.50;;;17.20;92.40;;;;;;5070559;28;20063;-56
2022/11/13 11:41:12;;;;;;;5.68;5.05;;;17.10;92.40;;;;;;5070160;28;20485;-53
2022/11/13 11:44:01;;;;;;;5.18;4.68;;;17.10;92.40;;;;;;5069629;28;20040;-53
2022/11/13 11:46:28;;;;;;;4.50;4.10;;;17.20;91.50;;;;;;5070084;28;20053;-56
2022/11/13 11:48:58;;;;;;;4.95;4.40;;;17.00;90.50;;;;;;5071396;28;20084;-54
2022/11/13 11:52:04;;;;;;;5.18;4.75;;;16.90;91.20;;;;;;5061367;28;20036;-54
2022/11/13 11:54:44;;;;;;;5.75;4.38;;;16.80;91.80;;;;;;5067834;28;20051;-53
2022/11/13 11:57:43;;;;;;;5.03;4.45;;;17.10;91.90;;;;;;5051694;28;20041;-55
2022/11/13 12:00:12;;;;;;;4.18;3.78;;;17.20;90.60;;;;;;5054531;28;20113;-54
2022/11/13 12:03:23;;;;;;;4.35;4.05;;;17.30;90.80;;;;;;5068740;28;20610;-56
2022/11/13 12:06:04;;;;;;;4.68;4.28;;;17.60;90.30;;;;;;5068310;28;20051;-56
2022/11/13 12:08:43;;;;;;;3.50;3.20;;;17.90;90.70;;;;;;5061600;28;20070;-55
2022/11/13 12:11:23;;;;;;;4.28;3.97;;;18.30;90.40;;;;;;5051363;28;20115;-55
2022/11/13 12:14:12;;;;;;;165.20;16.05;;;18.60;89.90;;;;;;5049304;28;20502;-55
2022/11/13 12:17:15;;;;;;;47.90;7.07;;;19.10;89.00;;;;;;5051381;28;20156;-55
2022/11/13 12:20:24;;;;;;;4.00;3.30;;;19.30;86.80;;;;;;5062322;28;20028;-55
2022/11/13 12:23:09;;;;;;;3.53;3.22;;;19.90;86.30;;;;;;4999695;28;20042;-55
2022/11/13 12:25:48;;;;;;;3.67;2.88;;;20.30;85.30;;;;;;5049355;28;20131;-55
2022/11/13 12:28:23;;;;;;;3.83;3.28;;;20.40;81.30;;;;;;5063760;28;20524;-53
2022/11/13 12:31:15;;;;;;;3.22;3.03;;;20.30;80.30;;;;;;5056579;28;20044;-56
2022/11/13 12:33:57;;;;;;;3.10;2.63;;;20.30;81.10;;;;;;5062046;28;20042;-51
2022/11/13 12:36:24;;;;;;;3.30;3.00;;;20.30;76.70;;;;;;5049791;28;20078;-56
2022/11/13 12:38:57;;;;;;;6.93;3.92;;;20.30;79.00;;;;;;5063751;28;20032;-53
2022/11/13 12:41:50;;;;;;;12.30;2.90;;;20.30;79.80;;;;;;5067942;28;20098;-55
2022/11/13 12:44:23;;;;;;;4.05;3.17;;;20.40;78.80;;;;;;5069967;28;20144;-57
2022/11/13 12:46:51;;;;;;;3.10;2.85;;;20.80;78.80;;;;;;5063052;28;20116;-56
2022/11/13 12:49:22;;;;;;;2.35;2.15;;;21.20;78.20;;;;;;5075811;28;20295;-54
2022/11/13 12:51:57;;;;;;;4.82;3.20;;;21.70;73.90;;;;;;5056739;28;20121;-55
2022/11/13 12:54:27;;;;;;;4.97;2.45;;;21.80;74.40;;;;;;5053749;28;20036;-56
2022/11/13 12:57:23;;;;;;;9.18;2.58;;;22.00;73.20;;;;;;5069286;28;20501;-59